createdAt,value
2022-11-08T00:00:44.748Z,69.56
2022-11-08T00:03:12.161Z,69.19
2022-11-08T00:06:00.641Z,69.52
2022-11-08T00:08:46.822Z,69.77
2022-11-08T00:11:32.973Z,69.49
2022-11-08T00:14:00.457Z,69.90
2022-11-08T00:16:29.597Z,69.62
2022-11-08T00:18:57.496Z,70.45
2022-11-08T00:21:24.823Z,69.98
2022-11-08T00:23:52.460Z,70.28
2022-11-08T00:26:19.735Z,70.21
2022-11-08T00:28:46.995Z,70.57
2022-11-08T00:31:14.263Z,70.38
2022-11-08T00:33:43.134Z,70.16
2022-11-08T00:36:10.685Z,70.40
2022-11-08T00:38:43.773Z,70.11
2022-11-08T00:41:12.320Z,70.35
2022-11-08T00:43:39.598Z,70.13
2022-11-08T00:46:06.899Z,70.18
2022-11-08T00:48:34.207Z,69.34
2022-11-08T00:51:06.663Z,69.61
2022-11-08T00:53:38.632Z,69.68
2022-11-08T00:56:12.318Z,69.97
2022-11-08T00:58:41.576Z,70.14
2022-11-08T01:01:14.758Z,69.83
2022-11-08T01:03:42.614Z,70.00
2022-11-08T01:06:12.771Z,69.91
2022-11-08T01:08:41.077Z,69.52
2022-11-08T01:11:16.230Z,69.32
2022-11-08T01:13:44.061Z,69.48
2022-11-08T01:16:20.466Z,69.71
2022-11-08T01:18:50.942Z,69.27
2022-11-08T01:21:18.998Z,69.97
2022-11-08T01:23:46.920Z,69.44
2022-11-08T01:26:29.989Z,69.59
2022-11-08T01:28:58.879Z,69.68
2022-11-08T01:31:32.689Z,69.58
2022-11-08T01:34:01.712Z,69.81
2022-11-08T01:36:29.859Z,69.67
2022-11-08T01:38:58.588Z,69.70
2022-11-08T01:41:27.847Z,69.66
2022-11-08T01:43:59.250Z,69.76
2022-11-08T01:46:45.659Z,69.90
2022-11-08T01:49:38.132Z,69.65
2022-11-08T01:52:37.432Z,69.64
2022-11-08T01:55:26.017Z,69.20
2022-11-08T01:58:09.006Z,69.23
2022-11-08T02:00:39.530Z,69.17
2022-11-08T02:03:13.907Z,69.16
2022-11-08T02:05:42.135Z,69.34
2022-11-08T02:08:43.629Z,69.75
2022-11-08T02:11:17.757Z,69.87
2022-11-08T02:13:45.041Z,69.49
2022-11-08T02:16:16.806Z,70.13
2022-11-08T02:18:46.119Z,69.73
2022-11-08T02:21:40.566Z,69.41
2022-11-08T02:24:13.162Z,69.31
2022-11-08T02:26:40.733Z,68.93
2022-11-08T02:29:35.450Z,69.52
2022-11-08T02:32:05.911Z,69.29
2022-11-08T02:34:49.179Z,69.41
2022-11-08T02:37:20.073Z,69.72
2022-11-08T02:39:47.944Z,69.21
2022-11-08T02:42:20.150Z,69.14
2022-11-08T02:44:48.134Z,69.44
2022-11-08T02:47:16.466Z,69.49
2022-11-08T02:49:43.781Z,69.41
2022-11-08T02:52:11.077Z,69.16
2022-11-08T02:54:38.581Z,68.91
2022-11-08T02:57:05.862Z,69.44
2022-11-08T02:59:33.121Z,69.49
2022-11-08T03:02:00.592Z,69.41
2022-11-08T03:04:28.038Z,69.17
2022-11-08T03:06:55.304Z,69.37
2022-11-08T03:09:22.703Z,69.16
2022-11-08T03:11:49.983Z,69.46
2022-11-08T03:14:17.287Z,69.16
2022-11-08T03:16:44.553Z,69.38
2022-11-08T03:19:12.385Z,69.22
2022-11-08T03:21:39.650Z,69.07
2022-11-08T03:24:08.018Z,69.30
2022-11-08T03:26:35.298Z,69.34
2022-11-08T03:29:02.548Z,69.39
2022-11-08T03:31:29.842Z,69.55
2022-11-08T03:33:57.144Z,69.33
2022-11-08T03:36:25.423Z,69.68
2022-11-08T03:38:52.760Z,69.45
2022-11-08T03:41:20.824Z,69.42
2022-11-08T03:43:48.077Z,69.87
2022-11-08T03:46:15.341Z,70.13
2022-11-08T03:48:42.660Z,69.72
2022-11-08T03:51:09.919Z,69.38
2022-11-08T03:53:37.185Z,69.68
2022-11-08T03:56:06.431Z,69.66
2022-11-08T03:58:33.800Z,69.79
2022-11-08T04:01:09.118Z,70.16
2022-11-08T04:03:36.458Z,69.97
2022-11-08T04:06:04.681Z,70.02
2022-11-08T04:08:32.100Z,69.48
2022-11-08T04:11:20.660Z,69.71
2022-11-08T04:14:08.699Z,69.44
2022-11-08T04:16:36.029Z,69.45
2022-11-08T04:19:39.823Z,69.65
2022-11-08T04:22:10.350Z,69.20
2022-11-08T04:24:37.762Z,69.78
2022-11-08T04:27:05.175Z,69.55
2022-11-08T04:29:32.442Z,69.32
2022-11-08T04:31:59.716Z,69.36
2022-11-08T04:34:27.080Z,69.41
2022-11-08T04:36:55.130Z,69.18
2022-11-08T04:39:22.379Z,69.51
2022-11-08T04:41:49.647Z,69.50
2022-11-08T04:44:18.400Z,69.50
2022-11-08T04:46:45.839Z,69.69
2022-11-08T04:49:13.108Z,69.81
2022-11-08T04:51:40.359Z,70.00
2022-11-08T04:54:07.779Z,69.86
2022-11-08T04:56:41.961Z,70.16
2022-11-08T04:59:12.033Z,69.52
2022-11-08T05:01:40.056Z,69.82
2022-11-08T05:04:07.482Z,70.20
2022-11-08T05:06:34.748Z,70.80
2022-11-08T05:09:02.055Z,70.84
2022-11-08T05:11:31.170Z,70.38
2022-11-08T05:13:58.490Z,70.41
2022-11-08T05:16:31.025Z,70.81
2022-11-08T05:18:58.815Z,71.13
2022-11-08T05:21:45.376Z,71.04
2022-11-08T05:24:17.268Z,70.93
2022-11-08T05:26:48.539Z,70.72
2022-11-08T05:29:17.371Z,71.19
2022-11-08T05:31:44.683Z,70.81
2022-11-08T05:34:11.959Z,70.87
2022-11-08T05:36:39.286Z,70.62
2022-11-08T05:39:06.623Z,71.01
2022-11-08T05:41:34.708Z,70.90
2022-11-08T05:44:01.966Z,71.03
2022-11-08T05:46:29.229Z,70.77
2022-11-08T05:48:56.721Z,70.25
2022-11-08T05:51:23.999Z,70.78
2022-11-08T05:53:51.281Z,70.81
2022-11-08T05:56:19.004Z,70.90
2022-11-08T05:58:49.411Z,70.73
2022-11-08T06:01:20.950Z,70.55
2022-11-08T06:03:48.584Z,70.71
2022-11-08T06:06:22.950Z,70.92
2022-11-08T06:08:51.795Z,70.58
2022-11-08T06:11:26.497Z,70.98
2022-11-08T06:13:55.235Z,71.09
2022-11-08T06:16:25.517Z,71.03
2022-11-08T06:18:53.067Z,70.60
2022-11-08T06:21:21.555Z,70.74
2022-11-08T06:23:53.809Z,70.23
2022-11-08T06:26:24.131Z,70.52
2022-11-08T06:28:51.516Z,70.55
2022-11-08T06:31:18.927Z,70.45
2022-11-08T06:33:46.529Z,70.73
2022-11-08T06:36:13.806Z,70.70
2022-11-08T06:38:41.072Z,70.71
2022-11-08T06:41:15.083Z,70.77
2022-11-08T06:43:42.348Z,70.37
2022-11-08T06:46:09.604Z,70.53
2022-11-08T06:48:36.871Z,70.25
2022-11-08T06:51:05.041Z,70.22
2022-11-08T06:53:33.209Z,70.61
2022-11-08T06:56:04.107Z,70.57
2022-11-08T06:58:32.188Z,70.48
2022-11-08T07:01:06.859Z,70.84
2022-11-08T07:03:34.984Z,70.81
2022-11-08T07:06:07.383Z,70.54
2022-11-08T07:08:35.954Z,70.31
2022-11-08T07:11:04.213Z,70.10
2022-11-08T07:13:31.519Z,70.28
2022-11-08T07:16:02.707Z,69.87
2022-11-08T07:18:30.065Z,70.10
2022-11-08T07:21:02.648Z,69.56
2022-11-08T07:23:48.587Z,69.52
2022-11-08T07:26:33.179Z,69.79
2022-11-08T07:29:16.133Z,69.56
2022-11-08T07:32:00.831Z,69.71
2022-11-08T07:34:35.227Z,69.70
2022-11-08T07:37:14.503Z,69.35
2022-11-08T07:39:53.847Z,69.34
2022-11-08T07:42:50.028Z,68.89
2022-11-08T07:45:34.220Z,68.88
2022-11-08T07:48:24.057Z,68.97
2022-11-08T07:51:06.467Z,69.07
2022-11-08T07:53:33.915Z,68.58
2022-11-08T07:56:01.312Z,68.51
2022-11-08T07:58:28.661Z,68.52
2022-11-08T08:01:03.360Z,68.43
2022-11-08T08:03:34.118Z,67.81
2022-11-08T08:06:01.875Z,67.89
2022-11-08T08:08:31.098Z,67.55
2022-11-08T08:11:02.148Z,67.17
2022-11-08T08:13:30.108Z,67.22
2022-11-08T08:16:01.819Z,67.06
2022-11-08T08:18:32.135Z,66.84
2022-11-08T08:20:59.649Z,66.80
2022-11-08T08:23:50.008Z,67.06
2022-11-08T08:26:29.117Z,67.24
2022-11-08T08:28:56.817Z,67.23
2022-11-08T08:31:24.072Z,67.04
2022-11-08T08:33:51.433Z,66.86
2022-11-08T08:36:18.759Z,66.82
2022-11-08T08:38:46.024Z,66.83
2022-11-08T08:41:13.458Z,66.27
2022-11-08T08:43:53.751Z,66.54
2022-11-08T08:46:21.102Z,66.27
2022-11-08T08:48:48.403Z,65.51
2022-11-08T08:51:15.743Z,65.51
2022-11-08T08:53:43.024Z,64.98
2022-11-08T08:56:10.557Z,65.01
2022-11-08T08:58:38.205Z,64.77
2022-11-08T09:04:13.444Z,64.13
2022-11-08T09:06:54.861Z,64.17
2022-11-08T09:09:30.414Z,65.04
2022-11-08T09:12:03.911Z,64.94
2022-11-08T09:14:37.300Z,64.95
2022-11-08T09:17:07.227Z,64.94
2022-11-08T09:19:34.496Z,65.08
2022-11-08T09:22:01.943Z,65.45
2022-11-08T09:24:29.443Z,65.19
2022-11-08T09:26:56.873Z,65.43
2022-11-08T09:29:24.289Z,65.79
2022-11-08T09:31:51.558Z,65.78
2022-11-08T09:34:21.640Z,65.83
2022-11-08T09:36:49.862Z,65.70
2022-11-08T09:39:17.281Z,65.02
2022-11-08T09:42:30.525Z,65.14
2022-11-08T09:45:46.484Z,64.48
2022-11-08T09:48:37.428Z,64.03
2022-11-08T09:51:18.303Z,63.55
2022-11-08T09:53:53.471Z,63.76
2022-11-08T09:56:37.739Z,63.63
2022-11-08T09:59:47.975Z,64.01
2022-11-08T10:02:24.296Z,63.78
2022-11-08T10:05:09.552Z,63.34
2022-11-08T10:08:01.796Z,63.08
2022-11-08T10:11:14.505Z,63.11
2022-11-08T10:14:01.037Z,63.05
2022-11-08T10:17:15.155Z,63.02
2022-11-08T10:20:08.612Z,62.44
2022-11-08T10:23:07.241Z,62.62
2022-11-08T10:26:01.046Z,62.63
2022-11-08T10:28:50.338Z,62.45
2022-11-08T10:31:20.666Z,62.80
2022-11-08T10:33:55.762Z,62.44
2022-11-08T10:36:48.357Z,62.13
2022-11-08T10:39:30.982Z,61.69
2022-11-08T10:42:20.256Z,61.61
2022-11-08T10:44:47.622Z,61.54
2022-11-08T10:47:31.008Z,61.30
2022-11-08T10:50:03.372Z,61.59
2022-11-08T10:53:04.236Z,61.10
2022-11-08T10:55:39.312Z,60.64
2022-11-08T10:58:42.778Z,60.48
2022-11-08T11:01:26.289Z,60.17
2022-11-08T11:03:54.330Z,60.47
2022-11-08T11:06:30.686Z,60.31
2022-11-08T11:09:04.795Z,60.20
2022-11-08T11:11:31.832Z,60.33
2022-11-08T11:14:19.441Z,60.03
2022-11-08T11:17:12.532Z,60.29
2022-11-08T11:19:55.643Z,59.65
2022-11-08T11:22:34.883Z,58.82
2022-11-08T11:25:17.799Z,58.44
2022-11-08T11:28:00.032Z,58.60
2022-11-08T11:30:35.133Z,57.49
2022-11-08T11:33:26.999Z,57.41
2022-11-08T11:36:14.353Z,56.81
2022-11-08T11:39:31.947Z,55.36
2022-11-08T11:45:36.391Z,52.54
2022-11-08T11:48:36.525Z,52.54
2022-11-08T11:51:03.933Z,51.92
2022-11-08T11:53:38.835Z,50.71
2022-11-08T11:56:52.491Z,48.97
2022-11-08T12:00:04.804Z,48.40
2022-11-08T12:02:52.652Z,47.68
2022-11-08T12:06:33.026Z,47.25
2022-11-08T12:10:01.076Z,46.73
2022-11-08T12:13:32.065Z,45.13
2022-11-08T12:17:02.907Z,44.56
2022-11-08T12:20:27.396Z,42.89
2022-11-08T12:23:50.849Z,42.90
2022-11-08T12:26:56.598Z,41.68
2022-11-08T12:30:03.320Z,41.41
2022-11-08T12:33:32.094Z,41.23
2022-11-08T12:36:35.423Z,41.06
2022-11-08T12:39:57.324Z,41.07
2022-11-08T12:43:05.917Z,41.97
2022-11-08T12:46:07.529Z,42.16
2022-11-08T12:49:19.813Z,42.86
2022-11-08T12:52:49.035Z,43.27
2022-11-08T12:55:42.325Z,44.14
2022-11-08T12:58:51.311Z,44.69
2022-11-08T13:01:22.506Z,45.90
2022-11-08T13:04:18.927Z,45.90
2022-11-08T13:07:21.757Z,45.95
2022-11-08T13:10:50.752Z,46.19
2022-11-08T13:13:59.725Z,46.90
2022-11-08T13:16:41.628Z,47.22
2022-11-08T13:19:30.590Z,47.55
2022-11-08T13:21:58.013Z,47.87
2022-11-08T13:24:48.790Z,47.92
2022-11-08T13:27:43.891Z,47.59
2022-11-08T13:30:35.129Z,47.73
2022-11-08T13:33:26.720Z,47.76
2022-11-08T13:36:56.421Z,48.05
2022-11-08T13:39:51.233Z,48.49
2022-11-08T13:42:29.253Z,48.73
2022-11-08T13:44:56.568Z,48.52
2022-11-08T13:47:33.146Z,48.83
2022-11-08T13:50:28.522Z,48.89
2022-11-08T13:53:20.565Z,49.21
2022-11-08T13:56:44.447Z,49.14
2022-11-08T13:59:32.987Z,49.67
2022-11-08T14:02:24.499Z,49.83
2022-11-08T14:04:53.940Z,49.71
2022-11-08T14:07:44.592Z,50.02
2022-11-08T14:10:50.410Z,50.44
2022-11-08T14:13:42.300Z,50.11
2022-11-08T14:16:28.133Z,50.02
2022-11-08T14:19:05.511Z,50.47
2022-11-08T14:21:33.423Z,50.40
2022-11-08T14:24:00.700Z,50.50
2022-11-08T14:26:30.846Z,50.98
2022-11-08T14:29:01.002Z,50.69
2022-11-08T14:31:34.483Z,50.88
2022-11-08T14:34:02.536Z,50.98
2022-11-08T14:36:31.917Z,50.99
2022-11-08T14:39:19.062Z,50.78
2022-11-08T14:41:58.250Z,51.00
2022-11-08T14:44:26.027Z,51.08
2022-11-08T14:46:54.326Z,51.37
2022-11-08T14:49:34.620Z,50.94
2022-11-08T14:52:29.495Z,51.56
2022-11-08T14:55:12.129Z,52.00
2022-11-08T14:57:46.445Z,52.01
2022-11-08T15:00:17.298Z,52.00
2022-11-08T15:03:03.266Z,52.01
2022-11-08T15:05:56.096Z,52.33
2022-11-08T15:08:53.192Z,52.45
2022-11-08T15:11:33.403Z,52.88
2022-11-08T15:14:10.900Z,53.03
2022-11-08T15:16:59.906Z,52.90
2022-11-08T15:19:46.162Z,53.13
2022-11-08T15:22:34.723Z,53.63
2022-11-08T15:25:29.772Z,53.41
2022-11-08T15:28:22.914Z,53.17
2022-11-08T15:31:04.932Z,53.36
2022-11-08T15:33:41.793Z,53.30
2022-11-08T15:36:23.299Z,53.39
2022-11-08T15:38:50.802Z,53.91
2022-11-08T15:41:40.456Z,53.42
2022-11-08T15:44:25.835Z,53.61
2022-11-08T15:46:55.855Z,53.52
2022-11-08T15:49:26.491Z,53.61
2022-11-08T15:51:58.640Z,53.61
2022-11-08T15:54:27.997Z,53.64
2022-11-08T15:56:56.539Z,53.99
2022-11-08T15:59:30.888Z,54.09
2022-11-08T16:02:02.535Z,54.35
2022-11-08T16:04:30.527Z,54.30
2022-11-08T16:06:58.171Z,54.28
2022-11-08T16:09:25.506Z,54.68
2022-11-08T16:11:53.413Z,54.64
2022-11-08T16:14:24.925Z,54.68
2022-11-08T16:16:54.008Z,54.75
2022-11-08T16:19:25.448Z,55.26
2022-11-08T16:21:53.170Z,55.24
2022-11-08T16:24:20.509Z,55.49
2022-11-08T16:26:49.090Z,55.44
2022-11-08T16:29:24.763Z,55.67
2022-11-08T16:31:52.778Z,55.72
2022-11-08T16:34:21.086Z,55.99
2022-11-08T16:36:49.898Z,56.24
2022-11-08T16:39:22.729Z,56.69
2022-11-08T16:41:49.984Z,57.11
2022-11-08T16:44:18.391Z,57.32
2022-11-08T16:46:45.713Z,57.06
2022-11-08T16:49:21.997Z,57.39
2022-11-08T16:51:50.149Z,57.32
2022-11-08T16:54:26.314Z,57.12
2022-11-08T16:57:13.633Z,57.55
2022-11-08T16:59:42.152Z,57.14
2022-11-08T17:02:40.479Z,57.45
2022-11-08T17:05:16.812Z,57.89
2022-11-08T17:07:44.690Z,58.00
2022-11-08T17:10:25.472Z,57.75
2022-11-08T17:12:55.028Z,57.58
2022-11-08T17:15:27.991Z,58.19
2022-11-08T17:17:58.507Z,58.05
2022-11-08T17:20:27.213Z,58.65
2022-11-08T17:22:55.989Z,58.38
2022-11-08T17:25:24.497Z,58.42
2022-11-08T17:27:56.236Z,58.30
2022-11-08T17:30:26.700Z,57.87
2022-11-08T17:32:55.031Z,57.82
2022-11-08T17:35:22.295Z,57.90
2022-11-08T17:37:49.571Z,58.30
2022-11-08T17:40:17.014Z,58.16
2022-11-08T17:42:45.301Z,58.35
2022-11-08T17:45:13.174Z,58.69
2022-11-08T17:47:41.787Z,58.41
2022-11-08T17:50:10.107Z,58.54
2022-11-08T17:52:37.982Z,58.43
2022-11-08T17:55:06.439Z,58.48
2022-11-08T17:57:33.912Z,58.30
2022-11-08T18:00:02.134Z,58.52
2022-11-08T18:02:29.546Z,58.38
2022-11-08T18:04:57.273Z,58.35
2022-11-08T18:07:24.754Z,58.63
2022-11-08T18:09:52.123Z,58.64
2022-11-08T18:12:19.719Z,59.09
2022-11-08T18:14:47.953Z,58.82
2022-11-08T18:17:15.219Z,58.48
2022-11-08T18:19:44.680Z,58.99
2022-11-08T18:22:12.026Z,59.04
2022-11-08T18:24:39.424Z,58.81
2022-11-08T18:27:06.733Z,58.77
2022-11-08T18:29:34.033Z,59.07
2022-11-08T18:32:01.834Z,59.40
2022-11-08T18:34:29.374Z,59.58
2022-11-08T18:36:56.752Z,59.54
2022-11-08T18:39:24.144Z,59.49
2022-11-08T18:41:51.467Z,59.63
2022-11-08T18:44:18.983Z,59.46
2022-11-08T18:46:46.324Z,60.22
2022-11-08T18:49:13.804Z,59.90
2022-11-08T18:51:41.303Z,59.90
2022-11-08T18:54:08.583Z,59.60
2022-11-08T18:56:35.990Z,59.48
2022-11-08T18:59:03.754Z,59.06
2022-11-08T19:01:33.372Z,58.83
2022-11-08T19:04:00.695Z,58.46
2022-11-08T19:06:28.347Z,58.65
2022-11-08T19:08:57.566Z,58.51
2022-11-08T19:11:24.861Z,59.06
2022-11-08T19:13:52.164Z,59.66
2022-11-08T19:16:21.003Z,59.79
2022-11-08T19:18:49.874Z,59.91
2022-11-08T19:21:25.147Z,59.94
2022-11-08T19:23:58.840Z,60.38
2022-11-08T19:26:30.034Z,60.28
2022-11-08T19:28:58.150Z,59.99
2022-11-08T19:31:26.104Z,60.09
2022-11-08T19:33:54.902Z,59.96
2022-11-08T19:36:26.502Z,59.60
2022-11-08T19:38:55.902Z,59.63
2022-11-08T19:41:29.034Z,59.52
2022-11-08T19:43:56.370Z,59.67
2022-11-08T19:46:29.388Z,59.84
2022-11-08T19:48:59.486Z,59.57
2022-11-08T19:51:32.340Z,59.95
2022-11-08T19:54:08.119Z,59.87
2022-11-08T19:57:03.698Z,60.09
2022-11-08T19:59:24.406Z,60.18
2022-11-08T20:01:51.732Z,60.62
2022-11-08T20:04:19.189Z,60.20
2022-11-08T20:06:46.731Z,60.11
2022-11-08T20:09:14.390Z,60.38
2022-11-08T20:11:42.584Z,61.04
2022-11-08T20:14:14.128Z,60.66
2022-11-08T20:16:49.180Z,60.73
2022-11-08T20:19:19.561Z,61.06
2022-11-08T20:21:46.915Z,60.60
2022-11-08T20:24:16.088Z,60.58
2022-11-08T20:26:44.237Z,61.13
2022-11-08T20:29:12.117Z,60.98
2022-11-08T20:31:42.546Z,60.85
2022-11-08T20:34:11.805Z,61.02
2022-11-08T20:36:40.955Z,60.61
2022-11-08T20:39:08.401Z,60.63
2022-11-08T20:41:38.682Z,60.83
2022-11-08T20:44:09.015Z,60.67
2022-11-08T20:46:37.717Z,60.41
2022-11-08T20:49:06.202Z,60.35
2022-11-08T20:51:34.452Z,60.86
2022-11-08T20:54:02.351Z,60.73
2022-11-08T20:56:30.223Z,60.48
2022-11-08T20:58:57.812Z,61.12
2022-11-08T21:01:29.675Z,60.77
2022-11-08T21:03:57.389Z,61.13
2022-11-08T21:06:28.156Z,61.05
2022-11-08T21:08:59.992Z,60.82
2022-11-08T21:11:30.999Z,61.25
2022-11-08T21:13:58.575Z,61.17
2022-11-08T21:16:31.981Z,61.18
2022-11-08T21:19:06.835Z,61.27
2022-11-08T21:21:34.423Z,61.17
2022-11-08T21:24:02.138Z,60.90
2022-11-08T21:26:29.558Z,61.50
2022-11-08T21:28:56.944Z,61.35
2022-11-08T21:31:24.373Z,61.72
2022-11-08T21:33:54.096Z,61.28
2022-11-08T21:36:23.230Z,61.21
2022-11-08T21:38:50.607Z,61.38
2022-11-08T21:41:17.935Z,61.07
2022-11-08T21:43:45.814Z,61.11
2022-11-08T21:46:24.223Z,61.34
2022-11-08T21:48:59.463Z,61.68
2022-11-08T21:51:29.805Z,61.60
2022-11-08T21:53:59.232Z,61.50
2022-11-08T21:56:36.322Z,61.50
2022-11-08T21:59:04.171Z,61.74
2022-11-08T22:01:31.656Z,61.59
2022-11-08T22:04:02.836Z,61.31
2022-11-08T22:06:30.293Z,61.48
2022-11-08T22:08:57.700Z,61.21
2022-11-08T22:11:25.108Z,60.89
2022-11-08T22:13:52.445Z,60.90
2022-11-08T22:16:19.861Z,60.99
2022-11-08T22:21:38.499Z,61.20
2022-11-08T22:24:20.931Z,60.82
2022-11-08T22:26:51.789Z,60.73
2022-11-08T22:29:19.850Z,60.90
2022-11-08T22:31:47.634Z,60.90
2022-11-08T22:34:15.803Z,60.66
2022-11-08T22:36:46.040Z,60.96
2022-11-08T22:39:24.919Z,60.67
2022-11-08T22:41:55.924Z,60.87
2022-11-08T22:44:23.706Z,60.67
2022-11-08T22:46:51.092Z,61.06
2022-11-08T22:49:18.500Z,60.93
2022-11-08T22:51:46.442Z,61.02
2022-11-08T22:54:13.794Z,60.93
2022-11-08T22:56:41.719Z,60.59
2022-11-08T22:59:09.542Z,60.96
2022-11-08T23:01:37.002Z,60.84
2022-11-08T23:04:04.453Z,61.05
2022-11-08T23:06:31.995Z,61.12
2022-11-08T23:08:59.336Z,61.08
2022-11-08T23:11:45.232Z,60.89
2022-11-08T23:14:36.751Z,61.30
2022-11-08T23:17:07.835Z,61.40
2022-11-08T23:19:53.605Z,61.09
2022-11-08T23:22:40.681Z,61.27
2022-11-08T23:25:08.412Z,61.34
2022-11-08T23:27:54.172Z,61.57
2022-11-08T23:30:43.628Z,61.73
2022-11-08T23:33:10.975Z,61.89
2022-11-08T23:35:38.310Z,61.34
2022-11-08T23:38:05.588Z,61.40
2022-11-08T23:40:51.647Z,61.47
2022-11-08T23:43:40.819Z,61.84
2022-11-08T23:46:12.730Z,61.29
2022-11-08T23:48:40.864Z,61.39
2022-11-08T23:51:08.813Z,61.09
2022-11-08T23:53:37.690Z,61.42
2022-11-08T23:56:06.402Z,61.63
2022-11-08T23:58:34.198Z,61.33
